Time;durP1;ratioP1;P1;durP2;ratioP2;P2;SDS_P1;SDS_P2;PMS_P1;PMS_P2;Temp;Humidity;BMP_temperature;BMP_pressure;BME280_temperature;BME280_humidity;BME280_pressure;Samples;Min_cycle;Max_cycle;Signal;HPM_P1;HPM_P2
2022/07/12 00:00:32;;;;;;;6.50;4.47;;;17.00;99.90;;;;;;5094554;28;20424;-85
2022/07/12 00:03:00;;;;;;;6.35;4.13;;;17.00;99.90;;;;;;5094730;28;20385;-85
2022/07/12 00:05:28;;;;;;;7.22;4.82;;;17.00;99.90;;;;;;5096118;28;20388;-84
2022/07/12 00:07:56;;;;;;;8.50;4.40;;;17.00;99.90;;;;;;5086002;28;20483;-84
2022/07/12 00:10:24;;;;;;;5.00;4.45;;;17.00;99.90;;;;;;5094577;28;20381;-85
2022/07/12 00:12:52;;;;;;;6.20;4.32;;;16.90;99.90;;;;;;5094398;28;20388;-85
2022/07/12 00:15:21;;;;;;;5.78;4.50;;;16.90;99.90;;;;;;5087636;28;20386;-85
2022/07/12 00:17:49;;;;;;;6.38;4.65;;;16.80;99.90;;;;;;5094334;28;20391;-84
2022/07/12 00:20:18;;;;;;;6.47;4.70;;;16.70;99.90;;;;;;5076284;28;20450;-84
2022/07/12 00:22:48;;;;;;;5.70;4.60;;;16.80;99.90;;;;;;5094558;28;20457;-85
2022/07/12 00:25:16;;;;;;;6.78;4.78;;;16.80;99.90;;;;;;5076165;28;20995;-84
2022/07/12 00:27:44;;;;;;;6.93;5.05;;;16.80;99.90;;;;;;5099431;28;20387;-85
2022/07/12 00:30:12;;;;;;;6.45;4.90;;;16.70;99.90;;;;;;5097701;28;20447;-84
2022/07/12 00:32:40;;;;;;;7.00;5.30;;;16.70;99.90;;;;;;5095363;28;20463;-85
2022/07/12 00:35:08;;;;;;;6.82;5.53;;;16.70;99.90;;;;;;5102928;28;20495;-84
2022/07/12 00:37:35;;;;;;;6.57;5.60;;;16.70;99.90;;;;;;5080106;28;20380;-84
2022/07/12 00:40:06;;;;;;;8.10;5.53;;;16.70;99.90;;;;;;5104263;28;20391;-84
2022/07/12 00:42:35;;;;;;;6.65;5.90;;;16.70;99.90;;;;;;5089576;28;20398;-84
2022/07/12 00:45:04;;;;;;;6.50;5.70;;;16.70;99.90;;;;;;5080695;28;20388;-85
2022/07/12 00:47:37;;;;;;;6.53;5.50;;;16.70;99.90;;;;;;5079573;28;20401;-85
2022/07/12 00:50:07;;;;;;;7.03;6.20;;;16.70;99.90;;;;;;5084640;28;20389;-84
2022/07/12 00:52:36;;;;;;;7.13;5.88;;;16.70;99.90;;;;;;5097083;28;20399;-84
2022/07/12 00:55:08;;;;;;;6.93;5.90;;;16.60;99.90;;;;;;5093091;28;20406;-86
2022/07/12 00:57:38;;;;;;;6.50;5.45;;;16.60;99.90;;;;;;5095577;28;20783;-84
2022/07/12 01:00:10;;;;;;;6.53;5.30;;;16.70;99.90;;;;;;5095598;28;20383;-85
2022/07/12 01:02:38;;;;;;;6.47;5.40;;;16.50;99.90;;;;;;5095908;28;20393;-87
2022/07/12 01:05:07;;;;;;;6.78;5.70;;;16.50;99.90;;;;;;5095870;28;20519;-85
2022/07/12 01:07:36;;;;;;;7.60;5.80;;;16.50;99.90;;;;;;5095250;28;20822;-86
2022/07/12 01:10:05;;;;;;;7.15;5.70;;;16.50;99.90;;;;;;5095761;28;20469;-86
2022/07/12 01:12:34;;;;;;;8.03;6.30;;;16.50;99.90;;;;;;5113446;28;20426;-85
2022/07/12 01:15:05;;;;;;;6.53;5.65;;;16.50;99.90;;;;;;5113682;28;20912;-85
2022/07/12 01:17:33;;;;;;;7.65;6.13;;;16.50;99.90;;;;;;5109264;28;20396;-85
2022/07/12 01:20:01;;;;;;;6.70;5.88;;;16.40;99.90;;;;;;5084047;28;20404;-85
2022/07/12 01:22:35;;;;;;;9.15;7.15;;;16.50;99.90;;;;;;5093240;28;20376;-85
2022/07/12 01:25:06;;;;;;;6.97;6.28;;;16.50;99.90;;;;;;5093152;28;20423;-85
2022/07/12 01:27:34;;;;;;;6.68;5.90;;;16.50;99.90;;;;;;5075316;28;20384;-84
2022/07/12 01:30:03;;;;;;;7.97;6.28;;;16.30;99.90;;;;;;5074996;28;20388;-84
2022/07/12 01:32:32;;;;;;;7.07;5.90;;;16.30;99.90;;;;;;5075341;28;20385;-84
2022/07/12 01:35:05;;;;;;;6.32;5.70;;;16.30;99.90;;;;;;5075179;28;20423;-85
2022/07/12 01:37:43;;;;;;;7.45;5.63;;;16.30;99.90;;;;;;5058497;28;20392;-84
2022/07/12 01:40:14;;;;;;;9.63;5.40;;;16.40;99.90;;;;;;5058293;28;20384;-84
2022/07/12 01:42:44;;;;;;;8.97;5.80;;;16.30;99.90;;;;;;5085904;28;20390;-85
2022/07/12 01:45:12;;;;;;;6.20;5.60;;;16.30;99.90;;;;;;5092845;28;20384;-85
2022/07/12 01:47:40;;;;;;;7.65;5.93;;;16.20;99.90;;;;;;5092788;28;20384;-84
2022/07/12 01:50:10;;;;;;;6.65;5.97;;;16.20;99.90;;;;;;5074953;28;20385;-85
2022/07/12 01:52:41;;;;;;;6.90;5.40;;;16.20;99.90;;;;;;5092797;28;20389;-84
2022/07/12 01:55:11;;;;;;;8.03;5.90;;;16.10;99.90;;;;;;5092311;28;20465;-84
2022/07/12 01:57:42;;;;;;;7.63;5.13;;;16.10;99.90;;;;;;5074785;28;20471;-85
2022/07/12 02:00:12;;;;;;;7.07;5.45;;;16.10;99.90;;;;;;5092630;28;20380;-85
2022/07/12 02:02:40;;;;;;;5.25;4.75;;;16.00;99.90;;;;;;5092710;28;20738;-85
2022/07/12 02:05:08;;;;;;;5.33;4.57;;;16.00;99.90;;;;;;5074478;28;20389;-84
2022/07/12 02:07:36;;;;;;;5.28;4.78;;;16.00;99.90;;;;;;5092054;28;20392;-85
2022/07/12 02:10:07;;;;;;;6.82;4.90;;;16.00;99.90;;;;;;5074205;28;20399;-85
2022/07/12 02:12:36;;;;;;;5.25;4.75;;;15.90;99.90;;;;;;5074272;28;20480;-84
2022/07/12 02:15:07;;;;;;;6.40;4.97;;;16.00;99.90;;;;;;5091180;28;20400;-85
2022/07/12 02:17:35;;;;;;;7.60;4.85;;;16.10;99.90;;;;;;5092181;28;20385;-86
2022/07/12 02:20:03;;;;;;;4.82;4.32;;;16.00;99.90;;;;;;5092132;28;20450;-85
2022/07/12 02:22:31;;;;;;;6.22;4.57;;;16.10;99.90;;;;;;5074247;28;20743;-84
2022/07/12 02:24:59;;;;;;;5.32;4.00;;;16.00;99.90;;;;;;5092181;28;20388;-86
2022/07/12 02:27:27;;;;;;;4.43;3.80;;;16.00;99.90;;;;;;5073896;28;20732;-86
2022/07/12 02:29:54;;;;;;;5.20;4.00;;;16.00;99.90;;;;;;5090823;28;20381;-85
2022/07/12 02:32:22;;;;;;;5.22;3.72;;;16.10;99.90;;;;;;5091987;28;20441;-86
2022/07/12 02:34:50;;;;;;;4.22;3.53;;;16.10;99.90;;;;;;5073895;28;20995;-84
2022/07/12 02:37:18;;;;;;;3.75;3.30;;;16.10;99.90;;;;;;5090780;28;20395;-85
2022/07/12 02:39:45;;;;;;;3.40;3.10;;;16.10;99.90;;;;;;5073790;28;20377;-85
2022/07/12 02:42:13;;;;;;;6.00;3.08;;;16.10;99.90;;;;;;5091740;28;20388;-84
2022/07/12 02:44:41;;;;;;;3.28;2.67;;;16.10;99.90;;;;;;5091757;28;20384;-85
2022/07/12 02:47:09;;;;;;;4.20;2.83;;;16.10;99.90;;;;;;5091774;28;20410;-84
2022/07/12 02:49:37;;;;;;;2.95;2.53;;;16.10;99.90;;;;;;5073628;28;20404;-85
2022/07/12 02:52:05;;;;;;;5.05;2.60;;;16.20;99.90;;;;;;5090595;28;20434;-85
2022/07/12 02:54:32;;;;;;;3.22;2.67;;;16.10;99.90;;;;;;5073683;28;20422;-84
2022/07/12 02:57:00;;;;;;;2.50;2.20;;;16.00;99.90;;;;;;5073623;28;20399;-85
2022/07/12 02:59:28;;;;;;;2.30;2.10;;;16.00;99.90;;;;;;5090403;28;20391;-85
2022/07/12 03:01:56;;;;;;;2.08;1.88;;;16.00;99.90;;;;;;5089443;28;20387;-84
2022/07/12 03:04:23;;;;;;;2.70;2.30;;;16.00;99.90;;;;;;5077069;28;20401;-84
2022/07/12 03:06:51;;;;;;;2.00;1.80;;;16.00;99.90;;;;;;5074477;28;20922;-84
2022/07/12 03:09:19;;;;;;;2.72;1.75;;;16.00;99.90;;;;;;5095627;28;20399;-85
2022/07/12 03:11:46;;;;;;;2.15;1.80;;;16.00;99.90;;;;;;5077777;28;20435;-85
2022/07/12 03:14:14;;;;;;;2.10;1.90;;;16.00;99.90;;;;;;5094378;28;20427;-85
2022/07/12 03:16:42;;;;;;;2.70;1.80;;;15.90;99.90;;;;;;5077797;28;20815;-85
2022/07/12 03:19:10;;;;;;;4.03;1.90;;;16.00;99.90;;;;;;5094362;28;20380;-85
2022/07/12 03:21:38;;;;;;;2.20;1.38;;;16.00;99.90;;;;;;5077643;28;20462;-85
2022/07/12 03:24:06;;;;;;;4.63;1.80;;;16.00;99.90;;;;;;5094350;28;20388;-85
2022/07/12 03:26:33;;;;;;;3.17;2.00;;;16.00;99.90;;;;;;5077778;28;20420;-86
2022/07/12 03:29:01;;;;;;;2.80;1.60;;;16.00;99.90;;;;;;5077517;28;20955;-85
2022/07/12 03:31:29;;;;;;;2.80;1.60;;;16.00;99.90;;;;;;5077609;28;20449;-85
2022/07/12 03:33:57;;;;;;;2.92;1.50;;;16.00;99.90;;;;;;5094069;28;20785;-85
2022/07/12 03:36:26;;;;;;;2.13;1.30;;;16.10;99.90;;;;;;5094328;28;20451;-85
2022/07/12 03:38:54;;;;;;;2.22;1.58;;;16.10;99.90;;;;;;5077066;28;20397;-85
2022/07/12 03:41:23;;;;;;;1.97;1.40;;;16.10;99.90;;;;;;5095335;28;20410;-85
2022/07/12 03:43:51;;;;;;;2.35;1.30;;;16.10;99.90;;;;;;5093834;28;20446;-85
2022/07/12 03:46:19;;;;;;;2.20;1.40;;;16.10;99.90;;;;;;5077253;28;20385;-85
2022/07/12 03:48:47;;;;;;;2.22;1.60;;;16.10;99.90;;;;;;5093806;28;20416;-85
2022/07/12 03:51:15;;;;;;;1.70;1.40;;;16.10;99.90;;;;;;5094996;28;20463;-85
2022/07/12 03:53:42;;;;;;;2.10;1.40;;;16.10;99.90;;;;;;5093577;28;20376;-86
2022/07/12 03:57:13;;;;;;;1.88;1.52;;;16.10;99.90;;;;;;5076962;28;20406;-85
2022/07/12 03:58:58;;;;;;;3.00;1.30;;;16.20;99.90;;;;;;5103945;28;20888;-85
2022/07/12 04:01:26;;;;;;;2.10;1.20;;;16.10;99.90;;;;;;5100810;28;20416;-86
2022/07/12 04:03:55;;;;;;;1.90;1.30;;;16.10;99.90;;;;;;5096804;28;20395;-85
2022/07/12 04:06:23;;;;;;;1.67;1.10;;;16.20;99.90;;;;;;5078134;28;20403;-84
2022/07/12 04:08:51;;;;;;;3.70;1.30;;;16.10;99.90;;;;;;5083115;28;20791;-84
2022/07/12 04:11:19;;;;;;;2.63;1.30;;;16.10;99.90;;;;;;5078777;28;20896;-86
2022/07/12 04:13:47;;;;;;;1.85;1.20;;;16.10;99.90;;;;;;5056452;28;20387;-85
2022/07/12 04:16:14;;;;;;;3.90;1.15;;;16.10;99.90;;;;;;5073209;28;20461;-87
2022/07/12 04:18:42;;;;;;;3.08;2.20;;;16.10;99.90;;;;;;5075902;28;20409;-88
2022/07/12 04:21:10;;;;;;;3.38;1.60;;;16.10;99.90;;;;;;5093624;28;20437;-88
2022/07/12 04:23:38;;;;;;;3.55;1.50;;;16.20;99.90;;;;;;5110410;28;20472;-88
2022/07/12 04:26:06;;;;;;;3.38;1.67;;;16.30;99.90;;;;;;5094640;28;20384;-88
2022/07/12 04:28:35;;;;;;;3.50;1.30;;;16.30;99.90;;;;;;5093400;28;20420;-88
2022/07/12 04:31:03;;;;;;;2.15;1.83;;;16.20;99.90;;;;;;5093384;28;20626;-88
2022/07/12 04:33:32;;;;;;;2.70;1.40;;;16.20;99.90;;;;;;5093258;28;20384;-89
2022/07/12 04:36:00;;;;;;;1.90;1.52;;;16.20;99.90;;;;;;5091140;28;20398;-88
2022/07/12 04:38:28;;;;;;;1.92;1.50;;;16.20;99.90;;;;;;5074173;28;20967;-88
2022/07/12 04:40:55;;;;;;;1.92;1.42;;;16.20;99.90;;;;;;5074122;28;20436;-88
2022/07/12 04:43:24;;;;;;;2.58;1.55;;;16.20;99.90;;;;;;5074346;28;20465;-88
2022/07/12 04:45:52;;;;;;;2.42;1.60;;;16.20;99.90;;;;;;5074129;28;20394;-86
2022/07/12 04:48:20;;;;;;;2.05;1.60;;;16.20;99.90;;;;;;5075046;28;20389;-87
2022/07/12 04:50:48;;;;;;;4.18;1.50;;;16.20;99.90;;;;;;5082795;28;20422;-86
2022/07/12 04:53:15;;;;;;;1.85;1.50;;;16.20;99.90;;;;;;5072381;28;20885;-86
2022/07/12 04:55:43;;;;;;;1.85;1.58;;;16.20;99.90;;;;;;5073572;28;20398;-86
2022/07/12 04:58:11;;;;;;;2.40;1.65;;;16.20;99.90;;;;;;5092383;28;20380;-86
2022/07/12 05:00:38;;;;;;;2.70;1.80;;;16.20;99.90;;;;;;5092690;28;20385;-87
2022/07/12 05:03:06;;;;;;;2.03;1.80;;;16.30;99.90;;;;;;5109596;28;20789;-86
2022/07/12 05:05:34;;;;;;;4.40;1.73;;;16.20;99.90;;;;;;5109588;28;20412;-87
2022/07/12 05:08:02;;;;;;;1.57;1.47;;;16.20;99.90;;;;;;5103471;28;20926;-87
2022/07/12 05:10:29;;;;;;;2.80;2.00;;;16.20;99.90;;;;;;5114002;28;20386;-86
2022/07/12 05:12:57;;;;;;;1.90;1.60;;;16.30;99.90;;;;;;5096152;28;20383;-86
2022/07/12 05:15:25;;;;;;;2.70;1.80;;;16.30;99.90;;;;;;5095725;28;20402;-85
2022/07/12 05:17:53;;;;;;;2.28;1.83;;;16.30;99.90;;;;;;5096091;28;20847;-86
2022/07/12 05:20:20;;;;;;;2.05;1.70;;;16.30;99.90;;;;;;5095627;28;20741;-87
2022/07/12 05:22:48;;;;;;;2.30;1.90;;;16.30;99.90;;;;;;5095798;28;20394;-86
2022/07/12 05:25:17;;;;;;;3.70;2.20;;;16.30;99.90;;;;;;5078905;28;20385;-85
2022/07/12 05:27:44;;;;;;;3.00;2.10;;;16.30;99.90;;;;;;5095726;28;20383;-86
2022/07/12 05:30:12;;;;;;;2.78;2.38;;;16.30;99.90;;;;;;5094779;28;20382;-86
2022/07/12 05:32:40;;;;;;;2.88;2.50;;;16.30;99.90;;;;;;5113613;28;20382;-85
2022/07/12 05:35:08;;;;;;;3.40;2.42;;;16.40;99.90;;;;;;5095210;28;20820;-86
2022/07/12 05:37:36;;;;;;;4.88;2.92;;;16.40;99.90;;;;;;5095448;28;20417;-86
2022/07/12 05:40:04;;;;;;;3.80;2.90;;;16.40;99.90;;;;;;5095517;28;20472;-86
2022/07/12 05:42:32;;;;;;;3.47;2.90;;;16.40;99.90;;;;;;5095237;28;20385;-86
2022/07/12 05:44:59;;;;;;;4.05;3.30;;;16.30;99.90;;;;;;5113179;28;20391;-85
2022/07/12 05:47:28;;;;;;;3.80;2.97;;;16.40;99.90;;;;;;5078399;28;20408;-86
2022/07/12 05:50:04;;;;;;;4.65;3.15;;;16.40;99.90;;;;;;5094933;28;20885;-87
2022/07/12 05:55:18;;;;;;;4.78;3.80;;;16.40;99.90;;;;;;5113080;28;20540;-87
2022/07/12 05:57:46;;;;;;;5.43;3.67;;;16.40;99.90;;;;;;5113350;28;20379;-86
2022/07/12 06:00:15;;;;;;;3.72;3.20;;;16.40;99.90;;;;;;5073678;28;20426;-84
2022/07/12 06:02:43;;;;;;;4.83;3.80;;;16.40;99.90;;;;;;5104737;28;20404;-86
2022/07/12 06:05:12;;;;;;;5.40;4.05;;;16.40;99.90;;;;;;5094800;28;20395;-86
2022/07/12 06:07:40;;;;;;;4.68;4.13;;;16.40;99.90;;;;;;5094418;28;20446;-87
2022/07/12 06:10:09;;;;;;;6.13;5.00;;;16.40;99.90;;;;;;5094839;28;20398;-85
2022/07/12 06:12:37;;;;;;;8.00;4.83;;;16.40;99.90;;;;;;5094888;28;20386;-86
2022/07/12 06:15:06;;;;;;;4.80;4.15;;;16.50;99.90;;;;;;5112722;28;20447;-85
2022/07/12 06:17:35;;;;;;;6.75;5.20;;;16.50;99.90;;;;;;5094748;28;20424;-86
2022/07/12 06:20:03;;;;;;;6.60;5.07;;;16.50;99.90;;;;;;5094440;28;20386;-87
2022/07/12 06:22:31;;;;;;;6.80;5.45;;;16.50;99.90;;;;;;5077760;28;20782;-86
2022/07/12 06:24:58;;;;;;;6.88;5.63;;;16.50;99.90;;;;;;5094285;28;20390;-87
2022/07/12 06:27:47;;;;;;;7.20;5.90;;;16.50;99.90;;;;;;5112530;28;20381;-87
2022/07/12 06:30:19;;;;;;;7.43;6.10;;;16.60;99.90;;;;;;5111508;28;20477;-86
2022/07/12 06:32:48;;;;;;;6.25;5.60;;;16.60;99.90;;;;;;5094229;28;20884;-85
2022/07/12 06:35:17;;;;;;;6.70;5.30;;;16.50;99.90;;;;;;5094043;28;20424;-86
2022/07/12 06:37:44;;;;;;;6.55;5.32;;;16.50;99.90;;;;;;5094152;28;20473;-86
2022/07/12 06:40:16;;;;;;;5.70;4.97;;;16.60;99.90;;;;;;5112176;28;20884;-87
2022/07/12 06:42:44;;;;;;;6.78;5.60;;;16.60;99.90;;;;;;5093924;28;20445;-86
2022/07/12 06:45:12;;;;;;;9.32;5.53;;;16.60;99.90;;;;;;5112311;28;20383;-86
2022/07/12 06:47:40;;;;;;;7.03;5.70;;;16.60;99.90;;;;;;5112710;28;20478;-84
2022/07/12 06:50:08;;;;;;;7.35;5.72;;;16.60;99.90;;;;;;5094485;28;20387;-86
2022/07/12 06:52:36;;;;;;;7.45;5.97;;;16.60;99.90;;;;;;5094033;28;20775;-86
2022/07/12 06:55:04;;;;;;;6.75;6.05;;;16.70;99.90;;;;;;5093785;28;20522;-87
2022/07/12 06:57:33;;;;;;;6.75;5.85;;;16.60;99.90;;;;;;5094063;28;20383;-86
2022/07/12 07:00:04;;;;;;;9.15;6.97;;;16.70;99.90;;;;;;5112255;28;20406;-87
2022/07/12 07:02:32;;;;;;;9.60;7.70;;;16.70;99.90;;;;;;5077464;28;20478;-86
2022/07/12 07:05:00;;;;;;;7.95;7.15;;;16.70;99.90;;;;;;5110152;28;20430;-87
2022/07/12 07:07:27;;;;;;;9.80;7.97;;;16.70;99.90;;;;;;5090065;28;20401;-87
2022/07/12 07:09:55;;;;;;;11.80;8.70;;;16.70;99.90;;;;;;5090423;28;20393;-85
2022/07/12 07:12:23;;;;;;;9.93;7.43;;;16.70;99.90;;;;;;5091650;28;20400;-87
2022/07/12 07:14:52;;;;;;;10.50;8.18;;;16.70;99.90;;;;;;5090287;28;20763;-85
2022/07/12 07:17:20;;;;;;;11.15;8.23;;;16.70;99.90;;;;;;5091515;28;20381;-87
2022/07/12 07:19:47;;;;;;;13.13;9.05;;;16.80;99.90;;;;;;5077063;28;20463;-86
2022/07/12 07:22:15;;;;;;;11.37;8.40;;;16.80;99.90;;;;;;5085167;28;20384;-86
2022/07/12 07:24:43;;;;;;;10.32;8.25;;;16.80;99.90;;;;;;5107219;28;20588;-85
2022/07/12 07:27:10;;;;;;;10.13;7.80;;;16.80;99.90;;;;;;5091479;28;20380;-86
2022/07/12 07:32:24;;;;;;;9.67;8.13;;;16.70;99.90;;;;;;5107186;28;20391;-87
2022/07/12 07:34:52;;;;;;;11.48;7.15;;;16.70;99.90;;;;;;5107134;28;20395;-86
2022/07/12 07:37:20;;;;;;;10.52;7.95;;;16.70;99.90;;;;;;5090451;28;20746;-86
2022/07/12 07:39:48;;;;;;;9.70;7.35;;;16.80;99.90;;;;;;5107030;28;20806;-87
2022/07/12 07:42:16;;;;;;;10.55;7.70;;;16.80;99.90;;;;;;5091451;28;20388;-86
2022/07/12 07:44:44;;;;;;;9.95;7.45;;;16.80;99.90;;;;;;5090080;28;20395;-86
2022/07/12 07:47:32;;;;;;;8.43;7.03;;;16.90;99.90;;;;;;5090214;28;20822;-88
2022/07/12 07:49:59;;;;;;;10.25;7.43;;;16.90;99.90;;;;;;5091514;28;20385;-87
2022/07/12 07:52:28;;;;;;;9.18;8.00;;;16.90;99.90;;;;;;5092317;28;20388;-86
2022/07/12 07:54:58;;;;;;;8.68;7.75;;;16.90;99.90;;;;;;5093971;28;20388;-87
2022/07/12 07:57:25;;;;;;;9.88;7.65;;;17.00;99.90;;;;;;5093825;28;20788;-86
2022/07/12 07:59:53;;;;;;;10.02;7.72;;;17.00;99.90;;;;;;5096365;28;20469;-86
2022/07/12 08:02:21;;;;;;;8.35;7.25;;;17.00;99.90;;;;;;5093659;28;20380;-86
2022/07/12 08:04:49;;;;;;;8.90;7.18;;;17.00;99.90;;;;;;5093837;28;20380;-86
2022/07/12 08:07:17;;;;;;;9.00;7.33;;;17.00;99.90;;;;;;5093360;28;20408;-87
2022/07/12 08:10:05;;;;;;;8.02;7.10;;;17.00;99.90;;;;;;5093536;28;20898;-85
2022/07/12 08:12:33;;;;;;;7.78;6.22;;;17.00;99.90;;;;;;5093466;28;20658;-86
2022/07/12 08:15:01;;;;;;;9.07;7.10;;;17.00;99.90;;;;;;5093442;28;20397;-85
2022/07/12 08:17:28;;;;;;;9.23;7.15;;;17.00;99.90;;;;;;5094473;28;20388;-86
2022/07/12 08:19:56;;;;;;;8.50;6.57;;;17.10;99.90;;;;;;5094406;28;20806;-86
2022/07/12 08:22:24;;;;;;;9.75;7.05;;;17.10;99.90;;;;;;5076547;28;20393;-86
2022/07/12 08:24:52;;;;;;;9.57;7.27;;;17.10;99.90;;;;;;5093612;28;20400;-86
2022/07/12 08:27:19;;;;;;;8.65;7.20;;;17.10;99.90;;;;;;5094296;28;20393;-86
2022/07/12 08:29:47;;;;;;;8.93;7.50;;;17.10;99.90;;;;;;5093190;28;20384;-85
2022/07/12 08:32:16;;;;;;;10.43;7.93;;;17.10;99.90;;;;;;5093370;28;20388;-86
2022/07/12 08:34:43;;;;;;;9.82;8.45;;;17.20;99.90;;;;;;5091941;28;20392;-87
2022/07/12 08:37:12;;;;;;;10.10;8.43;;;17.20;99.90;;;;;;5056165;28;20438;-86
2022/07/12 08:39:41;;;;;;;11.65;9.60;;;17.20;99.90;;;;;;5064189;28;20396;-87
2022/07/12 08:42:13;;;;;;;13.45;10.32;;;17.20;99.90;;;;;;5076465;28;20398;-86
2022/07/12 08:44:41;;;;;;;14.38;11.35;;;17.20;99.90;;;;;;5092851;28;20384;-87
2022/07/12 08:47:09;;;;;;;14.02;11.50;;;17.20;99.90;;;;;;5093082;28;20407;-87
2022/07/12 08:49:37;;;;;;;14.85;11.82;;;17.20;99.90;;;;;;5093949;28;20446;-87
2022/07/12 08:52:26;;;;;;;14.40;12.43;;;17.30;99.90;;;;;;5083835;28;20386;-87
2022/07/12 08:54:54;;;;;;;17.15;13.13;;;17.20;99.90;;;;;;5072542;28;20393;-86
2022/07/12 08:57:30;;;;;;;15.63;13.90;;;17.30;99.90;;;;;;5072819;28;20401;-87
2022/07/12 09:00:03;;;;;;;18.00;13.77;;;17.30;99.90;;;;;;5072620;28;20383;-86
2022/07/12 09:03:02;;;;;;;19.52;14.77;;;17.30;99.90;;;;;;5072467;28;20398;-87
2022/07/12 09:05:31;;;;;;;16.10;14.40;;;17.30;99.90;;;;;;5071453;28;20867;-86
2022/07/12 09:08:07;;;;;;;19.05;15.32;;;17.30;99.90;;;;;;5082989;28;20396;-86
2022/07/12 09:10:56;;;;;;;20.33;15.97;;;17.30;99.90;;;;;;5075796;28;20390;-86
2022/07/12 09:13:55;;;;;;;18.70;15.63;;;17.30;99.90;;;;;;5096055;28;20386;-86
2022/07/12 09:16:25;;;;;;;18.52;15.77;;;17.30;99.90;;;;;;5079086;28;20399;-86
2022/07/12 09:19:19;;;;;;;20.92;17.17;;;17.40;99.90;;;;;;5078815;28;20390;-87
2022/07/12 09:21:51;;;;;;;20.35;16.15;;;17.40;99.90;;;;;;5113635;28;20460;-87
2022/07/12 09:24:20;;;;;;;20.17;16.40;;;17.40;99.90;;;;;;5113780;28;20379;-86
2022/07/12 09:26:48;;;;;;;19.35;16.63;;;17.40;99.90;;;;;;5078597;28;20387;-86
2022/07/12 09:29:16;;;;;;;20.15;17.67;;;17.40;99.90;;;;;;5095390;28;20397;-86
2022/07/12 09:37:21;;;;;;;20.33;17.75;;;17.50;99.90;;;;;;5113289;28;20409;-86
2022/07/12 09:39:52;;;;;;;21.77;17.45;;;17.50;99.90;;;;;;5078473;28;20391;-85
2022/07/12 09:42:21;;;;;;;19.48;17.20;;;17.60;99.90;;;;;;5113327;28;20791;-86
2022/07/12 09:44:57;;;;;;;20.45;16.90;;;17.60;99.90;;;;;;5113198;28;20382;-86
2022/07/12 09:47:26;;;;;;;21.58;18.02;;;17.60;99.90;;;;;;5113263;28;20383;-86
2022/07/12 09:49:54;;;;;;;19.30;16.55;;;17.70;99.90;;;;;;5089003;28;20426;-86
2022/07/12 09:52:36;;;;;;;22.45;19.05;;;17.70;99.90;;;;;;5108867;28;20383;-87
2022/07/12 09:55:05;;;;;;;19.98;17.77;;;17.80;99.90;;;;;;5095062;28;20508;-86
2022/07/12 09:57:36;;;;;;;18.80;16.35;;;17.80;99.90;;;;;;5104782;28;20436;-85
2022/07/12 10:00:08;;;;;;;20.75;17.65;;;17.90;99.90;;;;;;5092604;28;20776;-87
2022/07/12 10:02:39;;;;;;;21.88;18.63;;;17.90;99.90;;;;;;5075564;28;20404;-86
2022/07/12 10:05:10;;;;;;;20.58;18.17;;;17.90;99.90;;;;;;5092213;28;20402;-87
2022/07/12 10:07:39;;;;;;;22.55;17.60;;;17.90;99.90;;;;;;5099467;28;20912;-83
2022/07/12 10:10:09;;;;;;;19.67;16.98;;;18.00;99.90;;;;;;5097814;28;20403;-87
2022/07/12 10:12:38;;;;;;;20.65;17.42;;;17.90;99.90;;;;;;5104222;28;20402;-86
2022/07/12 10:15:20;;;;;;;19.35;17.25;;;18.10;99.90;;;;;;5109939;28;20400;-87
2022/07/12 10:17:58;;;;;;;20.80;17.37;;;18.20;99.90;;;;;;5094711;28;20473;-87
2022/07/12 10:20:27;;;;;;;19.75;17.52;;;18.20;99.90;;;;;;5108442;28;20794;-87
2022/07/12 10:23:16;;;;;;;23.70;17.45;;;18.20;99.90;;;;;;5101178;28;20419;-86
2022/07/12 10:25:43;;;;;;;18.97;16.97;;;18.20;99.90;;;;;;5074284;28;20804;-86
2022/07/12 10:28:12;;;;;;;20.40;15.93;;;18.20;99.90;;;;;;5106695;28;20383;-87
2022/07/12 10:30:50;;;;;;;19.02;16.60;;;18.20;99.90;;;;;;5112542;28;20378;-87
2022/07/12 10:33:22;;;;;;;18.15;16.02;;;18.20;99.90;;;;;;5112536;28;20382;-86
2022/07/12 10:36:07;;;;;;;18.48;16.42;;;18.40;99.90;;;;;;5112650;28;20457;-88
2022/07/12 10:38:41;;;;;;;17.65;15.75;;;18.30;99.90;;;;;;5095446;28;20383;-88
2022/07/12 10:41:21;;;;;;;18.00;16.00;;;18.40;99.90;;;;;;5094375;28;20798;-87
2022/07/12 10:44:05;;;;;;;18.02;16.00;;;18.50;99.90;;;;;;5112285;28;20469;-87
2022/07/12 10:46:37;;;;;;;16.88;15.05;;;18.40;99.90;;;;;;5112151;28;20395;-85
2022/07/12 10:49:28;;;;;;;18.05;15.25;;;18.50;99.90;;;;;;5092010;28;20388;-87
2022/07/12 10:52:11;;;;;;;18.30;15.57;;;18.40;99.90;;;;;;5091663;28;20442;-87
2022/07/12 10:55:02;;;;;;;17.92;15.20;;;18.40;99.90;;;;;;5074251;28;20388;-87
2022/07/12 10:57:54;;;;;;;16.60;14.90;;;18.50;99.90;;;;;;5064145;28;20952;-87
2022/07/12 11:00:23;;;;;;;16.83;14.95;;;18.50;99.90;;;;;;5090808;28;20393;-87
2022/07/12 11:02:50;;;;;;;18.50;15.00;;;18.60;99.90;;;;;;5073820;28;20831;-86
2022/07/12 11:05:25;;;;;;;17.88;15.98;;;18.50;99.90;;;;;;5091913;28;20873;-87
2022/07/12 11:07:54;;;;;;;16.85;14.55;;;18.60;99.90;;;;;;5090664;28;20906;-87
2022/07/12 11:10:23;;;;;;;18.50;15.25;;;18.60;99.90;;;;;;5090540;28;20408;-87
2022/07/12 11:12:51;;;;;;;18.15;15.27;;;18.60;99.90;;;;;;5074006;28;20388;-87
2022/07/12 11:15:19;;;;;;;16.70;14.88;;;18.60;99.90;;;;;;5091724;28;20993;-88
2022/07/12 11:17:46;;;;;;;18.83;16.42;;;18.60;99.90;;;;;;5091690;28;20428;-88
2022/07/12 11:20:14;;;;;;;18.73;15.38;;;18.50;99.90;;;;;;5057183;28;20388;-88
2022/07/12 11:22:43;;;;;;;16.95;14.75;;;18.50;99.90;;;;;;5057125;28;20499;-87
2022/07/12 11:25:12;;;;;;;16.88;15.05;;;18.50;99.90;;;;;;5057133;28;20393;-87
2022/07/12 11:27:40;;;;;;;19.38;16.35;;;18.50;99.90;;;;;;5074812;28;20392;-87
2022/07/12 11:30:09;;;;;;;18.48;15.25;;;18.50;99.90;;;;;;5077719;28;20380;-88
2022/07/12 11:32:39;;;;;;;20.63;15.23;;;18.60;99.90;;;;;;5077499;28;20442;-89
2022/07/12 11:35:25;;;;;;;16.70;14.93;;;18.60;99.90;;;;;;5095485;28;20874;-88
2022/07/12 11:37:55;;;;;;;18.75;15.13;;;18.70;99.90;;;;;;5095384;28;20412;-88
2022/07/12 11:40:27;;;;;;;17.67;14.47;;;18.80;99.90;;;;;;5077456;28;20858;-88
2022/07/12 11:43:00;;;;;;;16.83;14.73;;;19.00;99.90;;;;;;5060645;28;20388;-86
2022/07/12 11:45:29;;;;;;;16.77;14.93;;;19.10;99.90;;;;;;5077920;28;20384;-88
2022/07/12 11:48:02;;;;;;;16.75;14.27;;;19.10;99.90;;;;;;5093945;28;20432;-88
2022/07/12 11:50:31;;;;;;;15.65;13.68;;;19.20;99.90;;;;;;5094174;28;20384;-88
2022/07/12 11:53:03;;;;;;;17.77;14.30;;;19.20;99.90;;;;;;5095216;28;20395;-89
2022/07/12 11:55:31;;;;;;;15.88;14.18;;;19.20;99.90;;;;;;5097493;28;20382;-87
2022/07/12 11:58:06;;;;;;;16.60;14.82;;;19.20;99.90;;;;;;5097142;28;20896;-86
2022/07/12 12:00:34;;;;;;;15.65;13.80;;;19.20;99.90;;;;;;5110761;28;20384;-87
2022/07/12 12:03:01;;;;;;;18.67;14.60;;;19.20;99.90;;;;;;5076960;28;20392;-88
2022/07/12 12:05:29;;;;;;;18.02;14.55;;;19.20;99.90;;;;;;5076960;28;20384;-87
2022/07/12 12:07:57;;;;;;;18.35;15.05;;;19.10;99.90;;;;;;5073253;28;20410;-87
2022/07/12 12:10:25;;;;;;;17.85;14.57;;;19.10;99.90;;;;;;5073549;28;20402;-88
2022/07/12 12:12:57;;;;;;;17.07;14.63;;;19.00;99.90;;;;;;5074635;28;20660;-88
2022/07/12 12:15:31;;;;;;;16.98;14.65;;;19.00;99.90;;;;;;5077840;28;20426;-88
2022/07/12 12:18:04;;;;;;;19.50;15.68;;;18.90;99.90;;;;;;5086362;28;20432;-88
2022/07/12 12:20:34;;;;;;;15.60;13.98;;;18.90;99.90;;;;;;5093556;28;20458;-86
2022/07/12 12:23:14;;;;;;;19.88;15.65;;;19.00;99.90;;;;;;5094732;28;20377;-88
2022/07/12 12:25:42;;;;;;;16.85;14.50;;;19.00;99.90;;;;;;5089000;28;20403;-87
2022/07/12 12:28:10;;;;;;;15.35;13.75;;;19.00;99.90;;;;;;5074178;28;20776;-86
2022/07/12 12:30:55;;;;;;;17.30;14.27;;;19.00;99.90;;;;;;5087268;28;20868;-88
2022/07/12 12:33:52;;;;;;;17.55;14.80;;;19.10;99.90;;;;;;5083705;28;20382;-88
2022/07/12 12:36:24;;;;;;;17.05;14.00;;;19.20;99.90;;;;;;5072942;28;20395;-87
2022/07/12 12:39:00;;;;;;;17.65;14.63;;;19.20;99.90;;;;;;5075704;28;20398;-87
2022/07/12 12:41:30;;;;;;;16.25;14.32;;;19.30;99.90;;;;;;5085441;28;20463;-88
2022/07/12 12:44:03;;;;;;;16.27;14.52;;;19.30;99.90;;;;;;5095358;28;20381;-89
2022/07/12 12:46:55;;;;;;;17.83;14.18;;;19.40;99.90;;;;;;5086756;28;20398;-87
2022/07/12 12:49:43;;;;;;;18.30;14.57;;;19.60;99.90;;;;;;5092479;28;20493;-88
2022/07/12 12:52:11;;;;;;;16.10;13.80;;;19.80;99.90;;;;;;5093630;28;20842;-88
2022/07/12 12:54:38;;;;;;;16.13;13.98;;;19.80;99.90;;;;;;5094130;28;20433;-87
2022/07/12 12:57:08;;;;;;;16.52;13.63;;;19.80;99.90;;;;;;5093471;28;20411;-88
2022/07/12 13:03:50;;;;;;;16.35;12.48;;;19.90;99.90;;;;;;5073688;28;20369;-90
2022/07/12 13:06:20;;;;;;;16.73;13.48;;;20.40;99.90;;;;;;5072346;28;20413;-90
2022/07/12 13:08:47;;;;;;;13.88;12.40;;;20.50;99.90;;;;;;5089697;28;20384;-89
2022/07/12 13:11:22;;;;;;;17.05;14.27;;;20.70;99.90;;;;;;5075796;28;20412;-88